In Rescue
 
Open Full Screen Window  High Contrast Mode
Wind Gusting 16 knots
11
March 19, 2019 6:49 PM EDT
Weather Information
Wind Direction
  240 °
Wind Speed
  11 kt (13 mph)
Wind Gust
  16 kt (18 mph)
Altimeter
30.26 in
Visibility
10 SM
Temperature
07° C
45° F
Dewpoint
-06° C
21° F
Humidity
39%
1hr Rain Fall
00.00 in.
24hr Rain Fall
00.00 in.
Sky Condition
Clear
VFR

METAR KMOP 192249Z AUTO 24011G16KT 10SM CLR 07/M06 A3026 RMK AO2 T00671061

FAA Disclaimer: The data displayed is for advisory purposes only and is not to be used for flight planning or operations.